Aviation Digital Data Service (ADDS)

Output produced by METARs form (1739 UTC 27 May 2017)
found at http://www.aviationweather.gov/adds/metars/
 
LTAF 271720Z 00000KT 9999 SCT035 21/17 Q1010 NOSIG RMK RWY23 24003KT
TAF LTAF 271640Z 2718/2818 VRB02KT 9999 SCT035 
     BECMG 2806/2809 21012KT
       
LTCP 271250Z 22012KT 150V250 9999 SCT035 27/05 Q1009
TAF LTCP 271340Z 2715/2724 22015KT 9999 SCT040 BKN100 
     TEMPO 2715/2719 -TSRA FEW027CB BKN035 BKN090 
     BECMG 2719/2721 VRB02KT CAVOK
       
LTBJ 271720Z 01009KT 9999 SCT030 BKN100 19/14 Q1011 TEMPO FM1800 -TSRA
TAF LTBJ 271640Z 2718/2818 VRB02KT 9999 SCT030 BKN100 
     TEMPO 2718/2720 -TSRA FEW015CB BKN025 
     TEMPO 2810/2814 -TSRA FEW015CB BKN025 
     TEMPO 2814/2818 -TSRA FEW015CB BKN025
       
TAF LTAH 271340Z 2715/2724 VRB02KT 9999 SCT035 BKN100 
     TEMPO 2715/2718 21018KT -TSRA FEW025CB BKN030
       
LTCO 271250Z 25012KT 9999 SCT030 BKN100 20/06 Q1013
TAF LTCO 271340Z 2715/2724 25009KT 9999 SCT030 BKN100 
     BECMG 2719/2721 CAVOK
       
TAF LTBT 271340Z 2715/2724 VRB02KT 9999 SCT035 BKN100 
     PROB30 
     TEMPO 2718/2721 -TSRA FEW020CB BKN030
       
TAF LTAE 271640Z 2718/2803 VRB02KT 9999 SCT040 BKN100 
     TEMPO 2718/2721 -SHRA FEW030CB BKN035
       
LTBY 271650Z 08003KT 9999 BKN035 13/11 Q1014
TAF LTBY 271640Z 2718/2803 VRB02KT 9999 SCT035 BKN100 
     PROB30 2800/2803 -SHRA
       
LTAI 271720Z 27006KT 9999 FEW020CB BKN030 19/14 Q1011 NOSIG RMK RWY18C 26005KT 180V270 RWY36R 27006KT RWY18L 26006KT 130V300
TAF LTAI 271640Z 2718/2818 34006KT 9999 FEW020CB BKN030 
     BECMG 2718/2722 SCT030 
     BECMG 2806/2810 18010KT FEW020TCU 
     BECMG 2815/2818 34006KT
       
LTBA 271720Z 03013KT 360V070 9999 SCT021 18/12 Q1014 NOSIG RMK RWY17L 03014KT RWY05 /////KT RWY23 05013KT
TAF LTBA 271640Z 2718/2824 03013KT 9999 FEW035 
     BECMG 2722/2801 BKN035 BKN100 
     PROB40 
     TEMPO 2803/2807 -SHRA BKN025TCU 
     BECMG 2810/2813 FEW035
       
LTBF 271650Z VRB02KT 9999 -SHRA SCT035 BKN100 15/14 Q1013 NOSIG
TAF COR LTBF 271640Z 2718/2803 01008KT 9999 -SHRA SCT035 BKN100
       
TAF LTBG 271640Z 2718/2803 03012KT 9999 SCT035 BKN100
       
LTCJ 271720Z 18008KT CAVOK 24/08 Q1009 RMK RWY20 19005KT
TAF LTCJ 271640Z 2718/2818 24008KT CAVOK
       
LTBH 271650Z 07003KT 040V110 7000 -SHRA BKN030 BKN090 16/15 Q1013
TAF LTBH 271640Z 2718/2803 03012KT 9999 SCT035 BKN100
       
LTAY 271650Z VRB02KT 9999 SCT035 BKN100 13/11 Q1014
TAF LTAY 271640Z 2718/2803 VRB02KT 9999 SCT035 BKN100 
     TEMPO 2718/2721 -TSRA FEW020CB BKN030
       
LTFH 271650Z 00000KT 9999 SCT033 BKN100 15/13 Q1013 NOSIG
TAF LTFH 271640Z 2718/2803 VRB02KT 9999 SCT030 BKN100
       
TAF LTBL 271640Z 2718/2803 VRB02KT 9999 SCT040 BKN100
       
LTBU 271720Z 02013KT 9999 BKN019 16/12 Q1014 RMK RWY23 05012KT
TAF LTBU 271640Z 2718/2818 03013KT 9999 FEW035 
     BECMG 2722/2801 BKN035 BKN100 
     PROB40 
     TEMPO 2803/2807 -SHRA BKN025TCU 
     BECMG 2810/2813 FEW035
       
LTBS 271720Z VRB04KT 9999 SCT030 BKN080 21/15 Q1011 NOSIG RMK RWY19 VRB02KT
TAF LTBS 271640Z 2718/2818 VRB02KT 9999 SCT030 BKN100 
     BECMG 2807/2809 21012KT 
     PROB40 
     TEMPO 2814/2818 -TSRA SCT015CB BKN030
       
LTCC 271720Z 22007KT CAVOK 21/05 Q1009 NOSIG RMK RWY16 23007KT
TAF LTCC 271640Z 2718/2818 24008KT CAVOK
       
LTFD 271650Z 09011KT 9999 SCT030 BKN100 18/14 Q1012
TAF AMD LTFD 271718Z 2717/2724 08012KT 9999 -SHRA SCT030 BKN100
       
LTCA 271650Z 24004KT 200V270 9999 BKN035 18/09 Q1010 TEMPO TL1800 27017G27 -TSRA
TAF LTCA 271640Z 2718/2803 30007KT 9999 SCT035 
     BECMG 2720/2722 CAVOK
       
LTAT 271720Z VRB04KT 9999 SCT035 BKN090 18/08 Q1011 NOSIG RMK RWY03 20006KT
TAF LTAT 271640Z 2718/2818 21008KT 9999 SCT040 BKN100 
     BECMG 2721/2722 CAVOK 
     BECMG 2804/2806 SCT040 BKN100 
     BECMG 2807/2809 21018KT 
     PROB40 
     TEMPO 2809/2813 -TSRA FEW027CB BKN035 
     PROB40 
     TEMPO 2813/2817 -TSRA FEW027CB BKN035
       
LTAU 271720Z 18004KT 140V280 9999 FEW027CB BKN035 12/09 Q1015 RESHRA NOSIG RMK RWY07 16004KT 110V220
TAF LTAU 271640Z 2718/2818 VRB02KT 9999 SCT040 
     TEMPO 2718/2721 -SHRA FEW027CB BKN035 
     BECMG 2806/2808 FEW030CB BKN035 
     TEMPO 2808/2812 18015KT -TSRA
       
LTCD 271709Z 27004KT 230V330 9999 VCSH FEW030CB SCT038 15/09 Q1014 RETSRA TEMPO -TSRA RMK RWY29 26011KT
TAF LTCD 271640Z 2718/2803 30009KT 9999 SCT038 
     TEMPO 2718/2720 -TSRA FEW030CB SCT038 
     BECMG 2721/2723 CAVOK
       
LTCE 271720Z VRB05KT 9999 -SHRA FEW025CB BKN035 11/07 Q1017 TEMPO FM1800 -TSRA
TAF LTCE 271640Z 2718/2818 12007KT 9999 FEW025CB BKN035 
     TEMPO 2718/2721 -TSRA 
     BECMG 2721/2722 SCT040 BKN090 
     BECMG 2722/2724 CAVOK 
     BECMG 2805/2808 21013KT FEW030CB BKN040 
     TEMPO 2809/2812 21017G30KT -TSRA 
     BECMG 2814/2816 VRB02KT BKN030
       
LTAC 271720Z 21008KT 9999 FEW025CB SCT030 BKN090 12/08 Q1014 NOSIG RMK RWY21L 20010KT RWY03L 20008KT RWY21R 21008KT 170V260
TAF LTAC 271640Z 2718/2818 VRB02KT 9999 SCT035 BKN080 
     TEMPO 2718/2721 -SHRA FEW025CB BKN030 
     TEMPO 2806/2810 -SHRA FEW025CB BKN030 
     TEMPO 2811/2815 01015KT -TSRA SCT025CB BKN030
       
LTBI 271619Z 15004KT 9999 SCT035 BKN100 13/11 Q1013 RESHRA NOSIG RMK RWY09 00000KT
TAF LTBI 271640Z 2718/2803 VRB02KT 9999 SCT035 BKN100 
     PROB30 2800/2803 -SHRA
       
LTAD 271611Z 23008KT 190V250 4000 TSRA SCT020CB BKN030 13/10 Q1014 BECMG TL1710 9999 NSW RMK RWY29 22008KT
TAF LTAD 271640Z 2718/2803 VRB02KT 9999 SCT040 BKN100 
     TEMPO 2718/2721 -SHRA FEW030CB BKN035
       
TAF LTBK 271340Z 2715/2724 VRB02KT 9999 SCT030 BKN100 
     TEMPO 2715/2718 -TSRA FEW015CB BKN025 
     PROB40 
     TEMPO 2718/2721 -TSRA FEW015CB BKN025
       
TAF LTAB 271640Z 2718/2803 VRB02KT 9999 SCT040 BKN100 
     TEMPO 2718/2722 -SHRA FEW025CB BKN035
       
LTAG 271720Z 17004KT 9999 FEW035 21/16 Q1011 NOSIG
TAF LTAG 271640Z 2718/2818 03007KT 9999 FEW035 
     BECMG 2718/2720 CAVOK 
     BECMG 2802/2804 BKN030 
     TEMPO 2813/2817 18010KT
       
LTCN 271650Z 28019KT 9999 FEW035 20/12 Q1011 NOSIG
TAF LTCN 271640Z 2718/2803 30015KT CAVOK 
     BECMG 2721/2724 VRB02KT
       
TAF LTFA 271340Z 2715/2724 VRB02KT 9999 SCT035 BKN100 
     TEMPO 2715/2717 -SHRA 
     PROB30 
     TEMPO 2718/2721 -TSRA FEW020CB BKN030
       
LTAZ 271720Z 13004KT 9999 FEW030CB BKN035 13/11 Q1014 RMK RWY29 00000KT
TAF LTAZ 271640Z 2718/2818 VRB02KT 9999 SCT040 
     TEMPO 2718/2721 4000 TSRA SCT025CB BKN030 
     TEMPO 2807/2811 18013KT -TSRA FEW030CB BKN035
       
LTCF 271650Z 16006KT 9999 -SHRA FEW020CB BKN030 BKN070 08/06 Q1017
TAF LTCF 271640Z 2718/2803 VRB02KT 9999 FEW030CB BKN030 BKN070 
     TEMPO 2718/2721 -SHRA 
     BECMG 2721/2723 BKN025
       
TAF LTAL 271340Z 2715/2724 02006KT 9999 SCT033 BKN100
       
LTAN 271650Z VRB02KT 9999 SCT035 BKN090 12/10 Q1014 NOSIG
TAF LTAN 271640Z 2718/2803 VRB02KT 9999 SCT040
       
TAF LTBN 271340Z 2715/2724 VRB02KT 9999 SCT035 BKN100 
     TEMPO 2715/2719 35012KT -TSRA FEW025CB BKN030
       
LTCR 271150Z 23010KT 190V260 CAVOK 29/05 Q1009
TAF LTCR 271340Z 2715/2724 25009KT CAVOK
       
LTAP 271720Z 05012KT 9999 SCT040 BKN100 14/11 Q1012 NOSIG RMK RWY23 05012KT
TAF LTAP 271640Z 2718/2818 02009KT 9999 SCT040 BKN090 
     TEMPO 2718/2722 -SHRA FEW030CB BKN035 
     TEMPO 2722/2802 -SHRA FEW030CB BKN035
       
LTFE 271720Z 23005KT 9999 FEW020CB SCT035 BKN100 20/13 Q1011 TEMPO -TSRA
TAF LTFE 271640Z 2718/2818 VRB02KT 9999 FEW025CB BKN030 
     TEMPO 2718/2720 -TSRA 
     BECMG 2720/2722 SCT035 
     BECMG 2808/2810 26014KT FEW020CB BKN030 
     PROB40 
     TEMPO 2812/2816 -TSRA 
     BECMG 2816/2818 VRB02KT SCT035
       
LTCK 271350Z 22015KT 9999 SCT040 21/04 Q1012
TAF LTCK 271340Z 2715/2724 22012KT 9999 SCT035
       
LTAJ 271720Z 27004KT 230V290 CAVOK 19/04 Q1012 NOSIG RMK RWY10 26008KT 230V290
TAF LTAJ 271640Z 2718/2818 25009KT CAVOK
       
LTFJ 271720Z 03016KT 9999 SCT035 BKN100 16/12 Q1013 NOSIG RMK RWY24 02010KT
TAF LTFJ 271640Z 2718/2818 03012KT 9999 SCT035 BKN100
       
TAF LTBX 271340Z 2715/2724 03012KT 9999 SCT035 BKN100
       
TAF LTCL 271340Z 2715/2724 21008KT CAVOK
       
LTCM 271250Z 02005KT 9999 SCT033 BKN100 17/12 Q1013
TAF LTCM 271340Z 2715/2724 VRB02KT 9999 SCT033 BKN100
       
TAF LTAV 271340Z 2715/2724 35008KT 9999 SCT035 BKN100 
     TEMPO 2715/2719 -TSRA FEW025CB BKN030
       
LTFC 271720Z 32004KT 9999 SCT035 BKN100 13/09 Q1014 RMK RWY23 30004KT
TAF LTFC 271640Z 2718/2818 VRB02KT 9999 FEW020CB BKN035 
     BECMG 2720/2724 SCT035 
     TEMPO 2806/2810 -TSRA FEW020CB BKN030 
     TEMPO 2810/2814 -TSRA FEW020CB BKN030
       
LTAW 271250Z 25006KT 9999 -TSRA FEW025CB BKN035 16/12 Q1011
TAF LTAW 271340Z 2715/2724 04008KT 9999 SCT040 
     TEMPO 2715/2718 30015KT -TSRA SCT033CB BKN036 BKN080 
     TEMPO 2719/2722 -SHRA FEW033CB BKN036
       
LTBQ 271650Z 04007KT 360V080 9999 FEW015 SCT030 BKN080 17/14 Q1014 NOSIG
TAF COR LTBQ 271640Z 2718/2803 VRB02KT 8000 SCT015 SCT030 BKN100 
     PROB30 
     TEMPO 2800/2803 1600 -SHRA BR BKN008 BKN030
       
LTCG 271720Z VRB01KT 9999 SCT012 SCT035 BKN100 16/14 Q1013 TEMPO FM1800 BKN009 BKN028
TAF LTCG 271640Z 2718/2818 VRB02KT 9999 SCT011 
     TEMPO 2718/2722 -SHRA BKN009 BKN028 
     BECMG 2723/2802 BKN008 
     PROB40 2802/2806 3500 DZ BR BKN003 BKN025 
     BECMG 2806/2809 SCT035 
     PROB40 
     TEMPO 2812/2816 -TSRA SCT009 FEW025CB BKN025
       
LTCI 271650Z 10004KT 070V150 9999 FEW035 15/08 Q1015 NOSIG
TAF LTCI 271640Z 2718/2803 20007KT 9999 FEW035 
     BECMG 2719/2721 CAVOK
       
TAF LTBP 271340Z 2715/2724 VRB02KT 9999 -SHRA SCT030 BKN080 
     TEMPO 2715/2719 -TSRA FEW020CB BKN025
       
LTBR 271720Z 12004KT 9999 FEW027CB SCT030 BKN090 18/15 Q1013 TEMPO -TSRA
TAF LTBR 271640Z 2718/2818 VRB02KT 9999 SCT035 BKN100 
     TEMPO 2718/2720 -TSRA FEW025CB BKN030 
     BECMG 2721/2724 CAVOK 
     BECMG 2800/2803 SCT035 
     PROB30 2803/2806 4000 -SHRA BR FEW025CB BKN030 
     BECMG 2810/2812 34012KT 
     BECMG 2816/2818 VRB02KT CAVOK